Nearby METAR Reports

 

KCRE - North Myrtle Beach, South Carolina, USA
Distance from station: WSW 14mi, 23km
Updated: 02/18/2018 3:53pm
Overcast
Overcast
 Wind from E
Wind: E 9 mph , 15 km/h, Gust: 20 mph , 31 km/h
Temperature: 57°F , 14°C
Dew Point: 48°F , 9°C
Humidity: 72%
Barometer: 30.33 inHg , 1027.1 hPa
Clouds: Overcast
Visibility: 10 miles , 16 km
Cloud details: Few Clouds 4700 ft
Mostly cloudy 5500 ft
Overcast 6500 ft
2018/02/18 20:53 KCRE 182053Z 10008G17KT 10SM FEW047 BKN055 OVC065 14/09 A3033 RMK AO1 SLP271 60000 T01390094 53004
KSUT - Southport, North Carolina, USA
Distance from station: E 24mi, 38km
Updated: 02/18/2018 4:35pm
Overcast
Overcast
 Wind from E
Wind: E 13 mph , 20 km/h, Gust: 18 mph , 30 km/h
Temperature: 55°F , 13°C
Dew Point: 46°F , 8°C
Humidity: 72%
Barometer: 30.36 inHg , 1028.1 hPa
Clouds: Overcast
Visibility: 10 miles , 16 km
Cloud details: Mostly cloudy 7500 ft
Overcast 9500 ft
2018/02/18 21:35 KSUT 182135Z AUTO 09011G16KT 10SM BKN075 OVC095 13/08 A3036 RMK AO2 T01300083
KCPC - Whiteville, North Carolina, USA
Distance from station: NNW 28mi, 46km
Updated: 02/18/2018 4:35pm
Overcast
Overcast
 Wind from NE
Wind: NE 6 mph , 9 km/h
Temperature: 64°F , 18°C
Dew Point: 46°F , 8°C
Humidity: 52%
Barometer: 30.32 inHg , 1026.8 hPa
Clouds: Overcast
Visibility: 10 miles , 16 km
Cloud details: Mostly cloudy 4900 ft
Overcast 8000 ft
2018/02/18 21:35 KCPC 182135Z AUTO 04005KT 10SM BKN049 OVC080 18/08 A3032 RMK AO2 T01810075
 
KILM - Wilmington, North Carolina, USA
Distance from station: NE 42mi, 67km
Updated: 02/18/2018 3:53pm
Overcast
Overcast
 Wind from E
Wind: E 17 mph , 28 km/h
Temperature: 57°F , 14°C
Dew Point: 45°F , 7°C
Humidity: 63%
Barometer: 30.36 inHg , 1028.1 hPa
Clouds: Overcast
Visibility: 10 miles , 16 km
Cloud details: Overcast 4800 ft
2018/02/18 20:53 KILM 182053Z AUTO 09015KT 10SM OVC048 14/07 A3036 RMK AO2 SLP279 T01390072 51010
KLBT - Lumberton, North Carolina, USA
Distance from station: NW 57mi, 92km
Updated: 02/18/2018 3:54pm
Mostly cloudy
Mostly cloudy
 Wind from SE
Wind: SE 9 mph , 15 km/h
Temperature: 64°F , 18°C
Dew Point: 41°F , 5°C
Humidity: 43%
Barometer: 30.30 inHg , 1026.1 hPa
Clouds: Mostly cloudy
Visibility: 10 miles , 16 km
Cloud details: Partly cloudy 4800 ft
Mostly cloudy 7000 ft
2018/02/18 20:54 KLBT 182054Z AUTO 13008KT 10SM SCT048 BKN070 18/05 A3030 RMK AO2 SLP261 T01830050 55007 $
KGGE - Georgetown, South Carolina, USA
Distance from station: SW 63mi, 101km
Updated: 02/18/2018 4:35pm
Light drizzle, Overcast
Light drizzle, Overcast
 Wind from E
Wind: E 13 mph , 20 km/h, Gust: 20 mph , 31 km/h
Temperature: 54°F , 12°C
Dew Point: 50°F , 10°C
Humidity: 88%
Barometer: 30.34 inHg , 1027.4 hPa
Summary: Light Drizzle
Clouds: Overcast
Visibility: 10 miles , 16 km
Cloud details: Partly cloudy 4100 ft
Partly cloudy 4900 ft
Overcast 6000 ft
2018/02/18 21:35 KGGE 182135Z AUTO 09011G17KT 10SM -DZ SCT041 SCT049 OVC060 12/10 A3034 RMK AO2
 
KFLO - Florence, South Carolina, USA
Distance from station: WNW 73mi, 118km
Updated: 02/18/2018 3:53pm
Overcast
Overcast
 Wind from ESE
Wind: ESE 10 mph , 17 km/h
Temperature: 66°F , 19°C
Dew Point: 46°F , 8°C
Humidity: 49%
Barometer: 30.30 inHg , 1026.1 hPa
Clouds: Overcast
Visibility: 10 miles , 16 km
Cloud details: Mostly cloudy 5500 ft
Overcast 7000 ft
2018/02/18 20:53 KFLO 182053Z 12009KT 10SM BKN055 OVC070 19/08 A3030 RMK AO2 SLP260 T01890078 55006
KCTZ - Clinton, North Carolina, USA
Distance from station: N 74mi, 119km
Updated: 02/18/2018 4:35pm
Partly cloudy
Partly cloudy
 Wind from E
Wind: E 3 mph , 6 km/h
Temperature: 64°F , 18°C
Dew Point: 41°F , 5°C
Humidity: 43%
Barometer: 30.34 inHg , 1027.4 hPa
Clouds: Partly cloudy
Visibility: 10 miles , 16 km
Cloud details: Partly cloudy 4900 ft
2018/02/18 21:35 KCTZ 182135Z AUTO 10003KT 10SM SCT049 18/05 A3034 RMK AO2 T01750046
KFAY - Fayetteville, North Carolina, USA
Distance from station: NNW 77mi, 124km
Updated: 02/18/2018 3:53pm
Mostly cloudy
Mostly cloudy
 Wind from ENE
Wind: ENE 9 mph , 15 km/h
Temperature: 64°F , 18°C
Dew Point: 36°F , 2°C
Humidity: 34%
Barometer: 30.31 inHg , 1026.4 hPa
Clouds: Mostly cloudy
Visibility: 10 miles , 16 km
Cloud details: Mostly cloudy 4700 ft
2018/02/18 20:53 KFAY 182053Z 06008KT 10SM BKN047 18/02 A3031 RMK AO2 SLP259 T01830017 55008
 
KOAJ - Jacksonville, North Carolina, USA
Distance from station: NE 80mi, 129km
Updated: 02/18/2018 2:56pm
NOT Current
Overcast
Overcast
 Wind from E
Wind: E 9 mph , 15 km/h
Temperature: 64°F , 18°C
Dew Point: 39°F , 4°C
Humidity: 40%
Barometer: 30.33 inHg , 1027.1 hPa
Clouds: Overcast
Visibility: 10 miles , 16 km
Cloud details: Overcast 4800 ft
2018/02/18 19:56 KOAJ 181956Z AUTO 08008KT 10SM OVC048 18/04 A3033 RMK AO2 SLP276 T01780044